Time;durP1;ratioP1;P1;durP2;ratioP2;P2;SDS_P1;SDS_P2;PMS_P1;PMS_P2;Temp;Humidity;BMP_temperature;BMP_pressure;BME280_temperature;BME280_humidity;BME280_pressure;Samples;Min_cycle;Max_cycle;Signal;HPM_P1;HPM_P2
2022/01/10 00:01:28;;;;;;;7.45;5.82;;;3.50;84.70;;;;;;7371408;19;20132;-44
2022/01/10 00:03:57;;;;;;;8.25;6.55;;;3.50;84.70;;;;;;7372749;19;20131;-44
2022/01/10 00:06:27;;;;;;;9.00;6.22;;;3.40;85.00;;;;;;7376566;19;20461;-45
2022/01/10 00:08:57;;;;;;;13.95;6.78;;;3.50;84.50;;;;;;7371763;19;20128;-45
2022/01/10 00:11:29;;;;;;;8.23;6.30;;;3.50;84.70;;;;;;7362093;19;20159;-45
2022/01/10 00:13:58;;;;;;;12.48;6.05;;;3.50;84.70;;;;;;7370315;19;20214;-45
2022/01/10 00:16:28;;;;;;;7.65;5.57;;;3.60;84.80;;;;;;7365004;19;20131;-46
2022/01/10 00:18:57;;;;;;;7.18;5.68;;;3.60;84.50;;;;;;7363556;19;20882;-45
2022/01/10 00:21:27;;;;;;;10.55;5.28;;;3.70;84.40;;;;;;7374749;19;20132;-45
2022/01/10 00:23:56;;;;;;;7.68;5.88;;;3.70;84.70;;;;;;7373136;19;20143;-45
2022/01/10 00:26:31;;;;;;;8.23;5.13;;;3.70;84.30;;;;;;7365837;19;20131;-45
2022/01/10 00:29:00;;;;;;;8.75;5.30;;;3.70;84.30;;;;;;7369029;19;20143;-45
2022/01/10 00:31:30;;;;;;;8.00;5.65;;;3.80;84.00;;;;;;7373636;19;20123;-45
2022/01/10 00:34:01;;;;;;;12.38;5.57;;;3.80;84.10;;;;;;7373048;19;20139;-45
2022/01/10 00:36:31;;;;;;;8.40;5.15;;;3.70;85.00;;;;;;7374327;19;20127;-45
2022/01/10 00:39:00;;;;;;;7.10;4.40;;;3.70;84.50;;;;;;7370852;19;20480;-45
2022/01/10 00:41:36;;;;;;;8.55;5.32;;;3.60;84.40;;;;;;7367748;19;20132;-45
2022/01/10 00:44:06;;;;;;;5.05;4.28;;;3.60;84.40;;;;;;7370364;19;20230;-45
2022/01/10 00:46:35;;;;;;;14.43;5.57;;;3.50;84.20;;;;;;7363787;19;20591;-44
2022/01/10 00:49:06;;;;;;;7.90;5.50;;;3.60;84.40;;;;;;7368231;19;20139;-45
2022/01/10 00:51:36;;;;;;;9.93;6.45;;;3.60;84.80;;;;;;7370180;19;20168;-45
2022/01/10 00:54:06;;;;;;;8.88;4.60;;;3.70;84.70;;;;;;7371397;19;20120;-45
2022/01/10 00:56:38;;;;;;;7.90;5.35;;;3.70;84.50;;;;;;7371465;19;20494;-45
2022/01/10 00:59:07;;;;;;;8.27;5.50;;;3.60;85.10;;;;;;7366776;19;20785;-45
2022/01/10 01:01:37;;;;;;;6.78;4.60;;;3.60;85.10;;;;;;7366637;19;20683;-45
2022/01/10 01:04:09;;;;;;;5.93;4.22;;;3.60;85.40;;;;;;7368503;19;20128;-44
2022/01/10 01:06:39;;;;;;;4.80;4.30;;;3.60;85.40;;;;;;7373555;19;20127;-45
2022/01/10 01:09:11;;;;;;;8.45;4.45;;;3.60;85.40;;;;;;7363159;19;20878;-44
2022/01/10 01:14:56;;;;;;;5.40;4.13;;;3.60;85.10;;;;;;7358692;19;20127;-45
2022/01/10 01:17:46;;;;;;;6.25;3.58;;;3.50;85.40;;;;;;7372379;19;20679;-45
2022/01/10 01:26:01;;;;;;;6.30;3.70;;;3.60;85.10;;;;;;7363172;19;21024;-44
2022/01/10 01:28:34;;;;;;;3.97;3.20;;;3.50;85.00;;;;;;7371754;19;20468;-45
2022/01/10 01:31:06;;;;;;;7.88;3.08;;;3.50;85.50;;;;;;7370512;19;20119;-45
2022/01/10 01:33:35;;;;;;;7.38;4.85;;;3.60;85.50;;;;;;7366523;19;20132;-45
2022/01/10 01:36:05;;;;;;;4.63;3.38;;;3.50;85.20;;;;;;7362000;19;20128;-45
2022/01/10 01:38:36;;;;;;;5.07;3.33;;;3.50;85.20;;;;;;7366370;19;20146;-44
2022/01/10 01:41:22;;;;;;;4.50;3.05;;;3.50;84.70;;;;;;7368037;19;20143;-45
2022/01/10 01:43:57;;;;;;;4.95;3.00;;;3.50;85.00;;;;;;7364518;19;20140;-45
2022/01/10 01:46:29;;;;;;;5.47;3.33;;;3.60;85.00;;;;;;7363546;19;20131;-45
2022/01/10 01:49:01;;;;;;;3.83;3.20;;;3.60;85.60;;;;;;7368299;19;20618;-45
2022/01/10 01:51:31;;;;;;;8.88;3.05;;;3.60;84.60;;;;;;7359588;19;20135;-45
2022/01/10 01:54:03;;;;;;;11.43;3.17;;;3.60;84.90;;;;;;7360471;19;20132;-45
2022/01/10 01:56:34;;;;;;;3.70;3.08;;;3.60;85.00;;;;;;7366781;19;20136;-44
2022/01/10 01:59:06;;;;;;;3.80;2.70;;;3.60;85.10;;;;;;7365584;19;20131;-44
2022/01/10 02:01:36;;;;;;;3.33;2.33;;;3.50;85.20;;;;;;7366630;19;20132;-44
2022/01/10 02:04:06;;;;;;;4.50;3.72;;;3.90;86.10;;;;;;7367590;19;20639;-44
2022/01/10 02:06:39;;;;;;;3.83;2.60;;;3.50;85.50;;;;;;7363109;19;20642;-44
2022/01/10 02:09:14;;;;;;;4.80;2.28;;;3.50;85.50;;;;;;7362900;19;20158;-43
2022/01/10 02:11:44;;;;;;;4.10;2.60;;;3.50;85.40;;;;;;7367599;19;20159;-44
2022/01/10 02:14:18;;;;;;;4.63;2.67;;;3.50;84.90;;;;;;7373290;19;20633;-43
2022/01/10 02:16:54;;;;;;;3.05;2.78;;;3.60;84.80;;;;;;7372849;19;20135;-44
2022/01/10 02:19:41;;;;;;;5.70;2.50;;;3.60;84.60;;;;;;7373313;19;20141;-45
2022/01/10 02:22:15;;;;;;;5.03;2.60;;;3.50;85.00;;;;;;7374378;19;20131;-44
2022/01/10 02:24:58;;;;;;;6.38;2.63;;;3.50;85.20;;;;;;7371399;19;20523;-44
2022/01/10 02:27:28;;;;;;;3.90;2.55;;;3.50;85.20;;;;;;7372881;19;20128;-44
2022/01/10 02:29:58;;;;;;;3.88;2.63;;;3.50;85.20;;;;;;7373564;19;20490;-33
2022/01/10 02:32:34;;;;;;;2.97;2.20;;;3.60;84.90;;;;;;7368682;19;20570;-33
2022/01/10 02:35:03;;;;;;;3.28;2.60;;;3.60;85.70;;;;;;7374809;19;20127;-33
2022/01/10 02:37:38;;;;;;;6.07;2.40;;;3.50;85.90;;;;;;7375789;19;20123;-34
2022/01/10 02:40:14;;;;;;;7.72;2.70;;;3.50;86.10;;;;;;7370588;19;20128;-33
2022/01/10 02:42:44;;;;;;;7.03;2.45;;;3.50;86.10;;;;;;7373341;19;20195;-33
2022/01/10 02:45:16;;;;;;;3.03;2.20;;;3.50;85.60;;;;;;7370837;19;20798;-34
2022/01/10 02:47:46;;;;;;;5.82;2.40;;;3.60;85.40;;;;;;7374047;19;20533;-34
2022/01/10 02:50:16;;;;;;;5.30;2.58;;;3.50;85.70;;;;;;7375469;19;20139;-34
2022/01/10 02:52:50;;;;;;;8.90;3.05;;;3.50;85.80;;;;;;7375145;19;20127;-34
2022/01/10 02:55:20;;;;;;;4.93;2.20;;;3.50;86.00;;;;;;7366436;19;20136;-34
2022/01/10 02:57:50;;;;;;;7.47;2.55;;;3.50;85.90;;;;;;7378261;19;20633;-34
2022/01/10 03:00:23;;;;;;;6.10;2.70;;;3.50;86.30;;;;;;7362751;19;20135;-45
2022/01/10 03:02:54;;;;;;;8.20;2.83;;;3.50;86.30;;;;;;7377201;19;20127;-46
2022/01/10 03:05:27;;;;;;;8.02;2.35;;;3.60;86.20;;;;;;7370974;19;20650;-44
2022/01/10 03:08:02;;;;;;;4.63;2.03;;;3.60;86.20;;;;;;7374117;19;20130;-45
2022/01/10 03:10:33;;;;;;;7.38;2.63;;;3.60;86.50;;;;;;7365447;19;20191;-45
2022/01/10 03:13:03;;;;;;;8.05;3.05;;;3.60;86.80;;;;;;7371046;19;20123;-45
2022/01/10 03:15:35;;;;;;;3.80;3.15;;;3.70;86.50;;;;;;7373521;19;20135;-45
2022/01/10 03:18:05;;;;;;;8.90;3.13;;;3.70;85.90;;;;;;7373260;19;20127;-45
2022/01/10 03:20:34;;;;;;;4.13;2.40;;;3.80;85.40;;;;;;7371202;19;20130;-44
2022/01/10 03:23:09;;;;;;;4.88;3.00;;;3.70;85.20;;;;;;7376351;19;20127;-45
2022/01/10 03:25:38;;;;;;;5.22;3.00;;;3.70;85.40;;;;;;7375450;19;20154;-45
2022/01/10 03:28:13;;;;;;;9.15;3.17;;;3.70;85.80;;;;;;7371796;19;20158;-46
2022/01/10 03:30:45;;;;;;;6.05;3.78;;;3.70;86.00;;;;;;7364903;19;20147;-45
2022/01/10 03:33:19;;;;;;;9.45;3.88;;;3.60;86.10;;;;;;7371456;19;20143;-45
2022/01/10 03:35:49;;;;;;;5.80;4.63;;;3.70;86.10;;;;;;7370384;19;20150;-45
2022/01/10 03:38:23;;;;;;;4.82;4.32;;;3.80;86.00;;;;;;7374285;19;20772;-45
2022/01/10 03:40:53;;;;;;;6.53;3.85;;;3.90;85.80;;;;;;7367731;19;20130;-45
2022/01/10 03:43:26;;;;;;;10.10;4.60;;;4.00;85.20;;;;;;7367125;19;20124;-45
2022/01/10 03:45:57;;;;;;;4.88;3.30;;;4.20;84.50;;;;;;7367021;19;20611;-45
2022/01/10 03:48:27;;;;;;;6.97;4.50;;;4.30;84.20;;;;;;7367709;19;20585;-45
2022/01/10 03:50:57;;;;;;;10.50;4.20;;;4.40;83.80;;;;;;7372699;19;20479;-45
2022/01/10 03:53:30;;;;;;;6.80;3.88;;;4.40;83.20;;;;;;7372555;19;20161;-45
2022/01/10 03:56:00;;;;;;;8.70;4.20;;;4.50;83.20;;;;;;7368939;19;20142;-46
2022/01/10 03:58:34;;;;;;;4.03;3.63;;;4.50;83.20;;;;;;7373823;19;20143;-45
2022/01/10 04:01:04;;;;;;;9.15;4.10;;;4.60;82.90;;;;;;7370236;19;20135;-46
2022/01/10 04:03:37;;;;;;;7.13;4.13;;;4.70;82.50;;;;;;7370072;19;20124;-45
2022/01/10 04:06:12;;;;;;;5.40;4.13;;;4.80;82.50;;;;;;7371803;19;20130;-45
2022/01/10 04:08:44;;;;;;;5.20;3.42;;;4.80;81.10;;;;;;7369007;19;20785;-46
2022/01/10 04:11:14;;;;;;;8.68;5.07;;;4.70;81.00;;;;;;7365180;19;20151;-45
2022/01/10 04:13:44;;;;;;;5.78;3.42;;;4.70;81.60;;;;;;7374192;19;20135;-45
2022/01/10 04:16:13;;;;;;;5.53;3.75;;;4.80;81.50;;;;;;7370114;19;21755;-45
2022/01/10 04:18:44;;;;;;;6.85;4.43;;;4.80;80.90;;;;;;7372006;19;20124;-45
2022/01/10 04:21:15;;;;;;;6.60;4.30;;;4.80;80.70;;;;;;7371215;19;20128;-44
2022/01/10 04:23:47;;;;;;;8.02;4.18;;;4.90;80.90;;;;;;7369472;19;20142;-45
2022/01/10 04:26:17;;;;;;;7.13;4.40;;;4.90;80.90;;;;;;7374301;19;20139;-45
2022/01/10 04:28:49;;;;;;;8.88;4.28;;;4.90;80.80;;;;;;7369886;19;20135;-46
2022/01/10 04:31:19;;;;;;;5.10;4.10;;;4.90;81.30;;;;;;7369402;19;20191;-45
2022/01/10 04:33:49;;;;;;;9.70;4.30;;;4.90;81.40;;;;;;7372385;19;20134;-45
2022/01/10 04:36:19;;;;;;;7.95;4.60;;;4.90;80.70;;;;;;7370356;19;20150;-44
2022/01/10 04:38:51;;;;;;;6.22;4.82;;;4.90;80.10;;;;;;7371102;19;20579;-45
2022/01/10 04:41:21;;;;;;;7.00;4.93;;;4.90;80.60;;;;;;7365616;19;20128;-38
2022/01/10 04:43:51;;;;;;;8.13;4.57;;;4.90;80.00;;;;;;7362455;19;20140;-34
2022/01/10 04:46:20;;;;;;;7.57;4.68;;;4.90;80.30;;;;;;7368831;19;20167;-34
2022/01/10 04:48:50;;;;;;;7.93;4.78;;;4.80;80.40;;;;;;7367019;19;20649;-34
2022/01/10 04:51:20;;;;;;;18.15;5.55;;;4.90;80.20;;;;;;7364260;19;20272;-33
2022/01/10 04:53:55;;;;;;;7.78;5.32;;;4.90;79.80;;;;;;7364022;19;20650;-33
2022/01/10 04:56:25;;;;;;;10.98;5.30;;;4.90;78.90;;;;;;7363644;19;20602;-33
2022/01/10 04:58:57;;;;;;;8.57;5.18;;;4.90;78.60;;;;;;7370553;19;20123;-34
2022/01/10 05:01:27;;;;;;;11.23;5.28;;;4.80;79.20;;;;;;7368266;19;20135;-34
2022/01/10 05:04:01;;;;;;;7.43;4.88;;;4.70;79.70;;;;;;7364437;19;20128;-33
2022/01/10 05:06:30;;;;;;;6.13;4.90;;;4.70;80.30;;;;;;7369957;19;20138;-34
2022/01/10 05:09:03;;;;;;;12.15;5.60;;;4.80;80.20;;;;;;7358819;19;20148;-34
2022/01/10 05:11:51;;;;;;;10.90;5.47;;;4.70;79.90;;;;;;7360266;19;20160;-34
2022/01/10 05:14:21;;;;;;;7.32;5.35;;;4.70;80.10;;;;;;7366537;19;20135;-34
2022/01/10 05:16:51;;;;;;;14.52;7.57;;;4.80;80.10;;;;;;7371185;19;20132;-34
2022/01/10 05:19:21;;;;;;;8.40;5.30;;;4.80;79.60;;;;;;7373622;19;20132;-34
2022/01/10 05:21:52;;;;;;;7.60;4.82;;;4.70;79.70;;;;;;7369583;19;20132;-34
2022/01/10 05:24:24;;;;;;;10.05;6.53;;;4.70;80.00;;;;;;7373113;19;20796;-34
2022/01/10 05:26:54;;;;;;;11.25;5.00;;;4.70;80.40;;;;;;7365800;19;20120;-34
2022/01/10 05:29:27;;;;;;;7.75;5.63;;;4.70;80.70;;;;;;7371536;19;20123;-34
2022/01/10 05:31:56;;;;;;;10.38;7.20;;;4.70;80.10;;;;;;7366516;19;20127;-34
2022/01/10 05:34:33;;;;;;;9.93;6.07;;;4.70;79.30;;;;;;7364819;19;20225;-34
2022/01/10 05:37:02;;;;;;;14.50;6.40;;;4.80;80.00;;;;;;7359549;19;20159;-33
2022/01/10 05:39:35;;;;;;;11.85;6.35;;;4.80;79.50;;;;;;7353799;19;20119;-34
2022/01/10 05:42:08;;;;;;;15.13;6.30;;;4.70;79.20;;;;;;7369783;19;20214;-34
2022/01/10 05:44:38;;;;;;;11.30;7.18;;;4.70;79.70;;;;;;7368531;19;20140;-34
2022/01/10 05:47:08;;;;;;;11.38;6.60;;;4.60;80.50;;;;;;7372359;19;20146;-34
2022/01/10 05:49:45;;;;;;;13.77;7.25;;;4.60;81.20;;;;;;7377159;19;20150;-45
2022/01/10 05:52:17;;;;;;;9.05;6.50;;;4.60;80.80;;;;;;7377578;19;20142;-45
2022/01/10 05:54:53;;;;;;;11.13;6.65;;;4.60;80.80;;;;;;7376738;19;20143;-45
2022/01/10 05:57:23;;;;;;;17.20;7.25;;;4.70;81.10;;;;;;7371782;19;20165;-44
2022/01/10 05:59:56;;;;;;;13.20;6.78;;;4.60;80.30;;;;;;7373391;19;20127;-46
2022/01/10 06:02:25;;;;;;;19.02;7.32;;;4.60;80.80;;;;;;7374689;19;20142;-44
2022/01/10 06:04:57;;;;;;;12.23;6.32;;;4.70;80.70;;;;;;7378495;19;20157;-45
2022/01/10 06:07:42;;;;;;;12.85;7.00;;;4.70;80.80;;;;;;7373472;19;20509;-45
2022/01/10 06:10:15;;;;;;;13.40;7.65;;;4.70;81.30;;;;;;7366721;19;20135;-44
2022/01/10 06:12:45;;;;;;;12.35;7.07;;;4.80;81.00;;;;;;7368338;19;20135;-45
2022/01/10 06:15:15;;;;;;;10.65;7.00;;;4.80;80.50;;;;;;7373367;19;20130;-45
2022/01/10 06:17:47;;;;;;;14.98;8.05;;;4.80;80.70;;;;;;7372459;19;20128;-45
2022/01/10 06:20:18;;;;;;;13.88;7.88;;;4.80;80.10;;;;;;7375520;19;20526;-45
2022/01/10 06:22:48;;;;;;;12.23;7.45;;;4.80;80.10;;;;;;7370478;19;20132;-44
2022/01/10 06:25:24;;;;;;;12.57;8.20;;;4.80;80.30;;;;;;7366752;19;20202;-45
2022/01/10 06:27:57;;;;;;;19.30;8.43;;;4.70;80.90;;;;;;7368806;19;20825;-45
2022/01/10 06:30:28;;;;;;;16.65;8.98;;;4.80;80.50;;;;;;7376236;19;20128;-45
2022/01/10 06:33:01;;;;;;;14.27;7.30;;;4.90;80.50;;;;;;7376959;19;20128;-45
2022/01/10 06:35:31;;;;;;;17.83;9.32;;;5.00;79.60;;;;;;7371636;19;20124;-44
2022/01/10 06:38:01;;;;;;;13.40;8.52;;;5.10;79.20;;;;;;7367970;19;20138;-45
2022/01/10 06:40:33;;;;;;;16.55;8.65;;;5.20;79.20;;;;;;7364433;19;20451;-45
2022/01/10 06:43:04;;;;;;;18.85;9.32;;;5.10;79.00;;;;;;7363093;19;20606;-45
2022/01/10 06:45:37;;;;;;;19.45;9.25;;;5.20;79.40;;;;;;7365045;19;20129;-45
2022/01/10 06:48:08;;;;;;;13.90;9.00;;;5.20;78.80;;;;;;7368479;19;20152;-45
2022/01/10 06:50:42;;;;;;;15.13;8.10;;;5.20;78.50;;;;;;7373976;19;20744;-45
2022/01/10 06:53:12;;;;;;;14.55;8.57;;;5.20;78.70;;;;;;7371339;19;20135;-45
2022/01/10 06:55:44;;;;;;;18.38;8.52;;;5.10;78.90;;;;;;7373467;19;20127;-45
2022/01/10 06:58:16;;;;;;;17.75;8.20;;;5.10;78.30;;;;;;7373296;19;20191;-42
2022/01/10 07:00:47;;;;;;;16.75;9.38;;;5.00;78.90;;;;;;7376969;19;20614;-45
2022/01/10 07:03:17;;;;;;;19.48;9.73;;;4.90;79.10;;;;;;7379003;19;20626;-45
2022/01/10 07:05:59;;;;;;;13.68;8.40;;;4.80;79.20;;;;;;7379053;19;20136;-44
2022/01/10 07:08:29;;;;;;;21.83;9.55;;;4.80;79.40;;;;;;7376954;19;20135;-45
2022/01/10 07:11:05;;;;;;;16.95;9.57;;;4.80;79.80;;;;;;7370063;19;20151;-44
2022/01/10 07:13:35;;;;;;;20.67;10.25;;;4.80;80.40;;;;;;7373322;19;20174;-45
2022/01/10 07:16:07;;;;;;;16.85;9.93;;;4.90;79.60;;;;;;7377165;19;20132;-45
2022/01/10 07:18:41;;;;;;;17.85;8.90;;;4.90;79.60;;;;;;7374808;19;20132;-45
2022/01/10 07:21:22;;;;;;;12.63;8.43;;;5.00;79.20;;;;;;7375158;19;20119;-45
2022/01/10 07:23:52;;;;;;;16.50;8.55;;;5.00;79.10;;;;;;7375549;19;20491;-45
2022/01/10 07:26:25;;;;;;;16.88;9.48;;;5.00;79.10;;;;;;7376617;19;20598;-44
2022/01/10 07:28:54;;;;;;;17.38;10.13;;;5.00;79.30;;;;;;7377808;19;20158;-45
2022/01/10 07:31:24;;;;;;;18.08;9.00;;;5.10;80.20;;;;;;7374375;19;20514;-45
2022/01/10 07:33:54;;;;;;;21.50;9.63;;;5.10;78.70;;;;;;7377815;19;20194;-44
2022/01/10 07:36:24;;;;;;;19.60;8.88;;;5.10;78.90;;;;;;7373865;19;20151;-46
2022/01/10 07:38:54;;;;;;;16.15;8.60;;;5.00;78.70;;;;;;7375749;19;20131;-44
2022/01/10 07:41:26;;;;;;;18.35;8.50;;;4.90;78.70;;;;;;7376070;19;20637;-45
2022/01/10 07:43:56;;;;;;;15.43;9.55;;;5.50;79.80;;;;;;7372489;19;20739;-45
2022/01/10 07:46:26;;;;;;;15.73;8.75;;;4.70;79.60;;;;;;7378123;19;20157;-45
2022/01/10 07:48:56;;;;;;;18.88;9.35;;;4.80;79.60;;;;;;7371676;19;20674;-45
2022/01/10 07:51:27;;;;;;;15.32;8.48;;;4.90;79.00;;;;;;7376200;19;20150;-45
2022/01/10 07:53:57;;;;;;;13.77;8.60;;;5.00;78.90;;;;;;7376937;19;20142;-45
2022/01/10 07:56:29;;;;;;;16.30;9.65;;;5.00;78.70;;;;;;7373544;19;20467;-45
2022/01/10 07:58:59;;;;;;;21.00;9.70;;;5.00;78.50;;;;;;7373762;19;20124;-45
2022/01/10 08:01:28;;;;;;;14.13;8.70;;;4.90;78.90;;;;;;7372535;19;20668;-44
2022/01/10 08:03:58;;;;;;;15.93;9.23;;;4.90;78.90;;;;;;7375545;19;20131;-45
2022/01/10 08:06:28;;;;;;;18.63;9.20;;;4.90;78.80;;;;;;7375429;19;20848;-45
2022/01/10 08:08:57;;;;;;;16.83;9.75;;;4.90;79.20;;;;;;7374821;19;20131;-45
2022/01/10 08:11:29;;;;;;;16.50;9.65;;;4.90;79.20;;;;;;7372318;19;20167;-45
2022/01/10 08:14:00;;;;;;;16.92;8.93;;;4.90;78.90;;;;;;7376297;19;20526;-45
2022/01/10 08:16:30;;;;;;;16.55;9.57;;;4.80;79.20;;;;;;7376098;19;20854;-45
2022/01/10 08:18:59;;;;;;;19.48;10.27;;;4.80;79.20;;;;;;7370700;19;20124;-45
2022/01/10 08:21:29;;;;;;;15.48;9.48;;;4.90;78.70;;;;;;7374629;19;20236;-45
2022/01/10 08:24:01;;;;;;;18.42;10.40;;;4.90;78.90;;;;;;7371533;19;20210;-45
2022/01/10 08:26:33;;;;;;;17.75;10.45;;;4.90;78.90;;;;;;7378130;19;20130;-45
2022/01/10 08:29:02;;;;;;;19.63;13.98;;;4.90;78.80;;;;;;7373249;19;20175;-45
2022/01/10 08:31:33;;;;;;;19.58;11.02;;;4.80;79.00;;;;;;7372831;19;20131;-34
2022/01/10 08:34:04;;;;;;;17.77;10.82;;;4.90;79.10;;;;;;7375296;19;20856;-35
2022/01/10 08:36:33;;;;;;;15.68;10.07;;;4.90;79.00;;;;;;7373840;19;20132;-34
2022/01/10 08:39:03;;;;;;;23.23;11.10;;;4.90;78.90;;;;;;7373272;19;20128;-34
2022/01/10 08:41:36;;;;;;;21.23;11.65;;;5.00;78.60;;;;;;7375015;19;20476;-34
2022/01/10 08:44:05;;;;;;;15.90;10.55;;;5.10;78.30;;;;;;7372529;19;20124;-34
2022/01/10 08:46:36;;;;;;;17.58;10.50;;;5.20;78.00;;;;;;7375068;19;20131;-35
2022/01/10 08:49:05;;;;;;;14.45;10.82;;;5.20;77.40;;;;;;7370460;19;20139;-34
2022/01/10 08:51:37;;;;;;;20.00;10.98;;;5.20;77.30;;;;;;7373302;19;20506;-34
2022/01/10 08:54:09;;;;;;;17.50;11.55;;;5.20;77.10;;;;;;7373204;19;20163;-34
2022/01/10 08:56:42;;;;;;;18.65;11.05;;;5.30;77.40;;;;;;7375532;19;20590;-35
2022/01/10 08:59:11;;;;;;;19.55;11.50;;;5.40;76.40;;;;;;7371876;19;20143;-34
2022/01/10 09:01:42;;;;;;;17.63;12.43;;;5.40;76.20;;;;;;7371272;19;20135;-45
2022/01/10 09:04:15;;;;;;;17.50;10.70;;;5.50;76.40;;;;;;7375511;19;20166;-45
2022/01/10 09:06:46;;;;;;;15.90;10.35;;;5.60;76.30;;;;;;7374473;19;20147;-46
2022/01/10 09:09:16;;;;;;;15.63;8.52;;;5.70;75.00;;;;;;7371237;19;20131;-46
2022/01/10 09:11:49;;;;;;;19.63;10.32;;;5.80;73.70;;;;;;7372093;19;20235;-46
2022/01/10 09:14:19;;;;;;;18.00;11.18;;;5.70;74.30;;;;;;7373761;19;20712;-45
2022/01/10 09:16:49;;;;;;;26.55;10.43;;;5.70;73.90;;;;;;7375207;19;20150;-46
2022/01/10 09:19:18;;;;;;;20.40;11.02;;;5.70;74.70;;;;;;7372356;19;20610;-45
2022/01/10 09:21:48;;;;;;;20.52;10.30;;;5.60;75.00;;;;;;7372047;19;20140;-45
2022/01/10 09:24:18;;;;;;;19.35;11.23;;;5.60;75.20;;;;;;7372794;19;20143;-45
2022/01/10 09:26:50;;;;;;;17.65;11.27;;;5.60;75.20;;;;;;7375482;19;20142;-46
2022/01/10 09:29:19;;;;;;;24.58;12.30;;;5.70;75.10;;;;;;7372623;19;20146;-45
2022/01/10 09:31:49;;;;;;;24.35;11.70;;;5.80;74.80;;;;;;7372234;19;20131;-45
2022/01/10 09:34:18;;;;;;;23.50;12.30;;;5.60;74.60;;;;;;7373216;19;20134;-45
2022/01/10 09:36:48;;;;;;;19.48;11.35;;;5.60;75.10;;;;;;7374229;19;20799;-45
2022/01/10 09:39:19;;;;;;;15.70;10.98;;;5.60;74.70;;;;;;7374931;19;20135;-45
2022/01/10 09:41:53;;;;;;;21.58;12.35;;;5.40;75.50;;;;;;7375105;19;20150;-45
2022/01/10 09:44:23;;;;;;;22.70;10.80;;;5.40;75.50;;;;;;7372100;19;20135;-45
2022/01/10 09:46:53;;;;;;;18.70;10.63;;;5.50;75.30;;;;;;7374216;19;20119;-43
2022/01/10 09:49:23;;;;;;;26.05;13.10;;;5.60;75.10;;;;;;7373240;19;20147;-45
2022/01/10 09:51:54;;;;;;;26.35;13.90;;;5.60;74.80;;;;;;7372992;19;20598;-45
2022/01/10 09:54:24;;;;;;;24.10;12.15;;;5.50;75.30;;;;;;7372463;19;20174;-45
2022/01/10 09:56:59;;;;;;;25.48;12.65;;;5.50;75.20;;;;;;7372411;19;20138;-45
2022/01/10 09:59:29;;;;;;;16.10;10.27;;;5.50;76.20;;;;;;7373241;19;20138;-46
2022/01/10 10:01:58;;;;;;;16.35;11.30;;;5.70;75.60;;;;;;7367748;19;20131;-45
2022/01/10 10:04:28;;;;;;;23.08;11.15;;;5.80;75.10;;;;;;7371905;19;20132;-45
2022/01/10 10:06:58;;;;;;;19.77;11.43;;;5.90;74.50;;;;;;7373162;19;20131;-45
2022/01/10 10:09:29;;;;;;;20.45;12.60;;;6.10;74.20;;;;;;7371889;19;20653;-46
2022/01/10 10:12:01;;;;;;;17.90;11.50;;;6.20;73.60;;;;;;7371012;19;20182;-45
2022/01/10 10:14:30;;;;;;;19.42;8.88;;;6.20;73.30;;;;;;7372486;19;20132;-46
2022/01/10 10:17:08;;;;;;;16.73;9.13;;;6.40;72.10;;;;;;7374258;19;20128;-46
2022/01/10 10:19:37;;;;;;;18.08;9.63;;;6.50;72.20;;;;;;7369551;19;20131;-45
2022/01/10 10:22:09;;;;;;;16.05;9.73;;;6.50;70.40;;;;;;7370550;19;20124;-46
2022/01/10 10:24:39;;;;;;;26.95;16.00;;;6.50;71.40;;;;;;7373120;19;20146;-46
2022/01/10 10:27:11;;;;;;;21.45;12.35;;;6.70;70.80;;;;;;7375128;19;20136;-46
2022/01/10 10:29:41;;;;;;;18.85;11.43;;;6.90;69.70;;;;;;7370248;19;20127;-45
2022/01/10 10:32:15;;;;;;;19.52;11.70;;;6.80;69.00;;;;;;7374390;19;20134;-45
2022/01/10 10:34:45;;;;;;;14.05;9.40;;;6.70;69.70;;;;;;7377635;19;20132;-45
2022/01/10 10:37:17;;;;;;;19.15;11.23;;;6.50;70.40;;;;;;7377958;19;20130;-45
2022/01/10 10:39:47;;;;;;;12.88;8.95;;;6.50;71.00;;;;;;7377704;19;20152;-35
2022/01/10 10:42:22;;;;;;;19.55;11.75;;;6.50;70.20;;;;;;7376073;19;20143;-35
2022/01/10 10:44:52;;;;;;;18.60;10.25;;;6.40;71.20;;;;;;7381296;19;20563;-35
2022/01/10 10:47:22;;;;;;;15.80;11.07;;;6.40;71.70;;;;;;7378654;19;20598;-34
2022/01/10 10:49:52;;;;;;;16.45;10.50;;;6.50;70.90;;;;;;7377352;19;20138;-35
2022/01/10 10:52:21;;;;;;;16.50;11.45;;;6.40;71.30;;;;;;7377242;19;20120;-35
2022/01/10 10:54:51;;;;;;;14.68;9.93;;;6.30;71.70;;;;;;7378088;19;20842;-35
2022/01/10 10:57:27;;;;;;;32.20;11.90;;;6.30;72.00;;;;;;7377758;19;20131;-34
2022/01/10 10:59:58;;;;;;;24.58;11.35;;;6.30;72.20;;;;;;7378529;19;20151;-35
2022/01/10 11:02:28;;;;;;;13.27;8.38;;;6.40;70.30;;;;;;7378192;19;20154;-35
2022/01/10 11:05:02;;;;;;;18.75;11.30;;;;;;;;;;7376984;19;20135;-35
2022/01/10 11:07:33;;;;;;;17.67;10.13;;;;;;;;;;7377313;19;20223;-35
2022/01/10 11:10:06;;;;;;;15.10;10.18;;;;;;;;;;7377894;19;20132;-34
2022/01/10 11:12:42;;;;;;;15.25;9.27;;;;;;;;;;7375897;19;20135;-34
2022/01/10 11:15:12;;;;;;;14.70;9.40;;;;;;;;;;7379730;19;20161;-34
2022/01/10 11:17:43;;;;;;;13.40;8.55;;;;;;;;;;7377667;19;20622;-35
2022/01/10 11:20:16;;;;;;;12.15;8.07;;;;;;;;;;7376825;19;20139;-35
2022/01/10 11:22:46;;;;;;;12.40;8.57;;;;;;;;;;7372624;19;20719;-35
2022/01/10 11:25:28;;;;;;;17.38;10.00;;;6.30;69.70;;;;;;7374921;19;20524;-35
2022/01/10 11:28:01;;;;;;;14.18;10.05;;;7.30;66.60;;;;;;7370642;19;20602;-35
2022/01/10 11:30:34;;;;;;;15.13;7.90;;;7.60;65.80;;;;;;7377453;19;21124;-35
2022/01/10 11:33:08;;;;;;;11.77;6.57;;;;;;;;;;7375231;19;20135;-35
2022/01/10 11:35:39;;;;;;;13.05;7.18;;;;;;;;;;7377732;19;20136;-35
2022/01/10 11:38:19;;;;;;;14.70;8.25;;;;;;;;;;7377751;19;20131;-35
2022/01/10 11:40:50;;;;;;;10.68;7.25;;;;;;;;;;7376479;19;20542;-46
2022/01/10 11:43:37;;;;;;;12.53;7.50;;;;;;;;;;7360469;19;20131;-46
2022/01/10 11:46:15;;;;;;;17.00;7.07;;;;;;;;;;7375932;19;20368;-46
2022/01/10 11:48:46;;;;;;;18.67;7.80;;;;;;;;;;7369572;19;20384;-46
2022/01/10 11:51:17;;;;;;;9.03;6.90;;;;;;;;;;7372133;19;20415;-46
2022/01/10 11:53:48;;;;;;;12.60;7.17;;;;;;;;;;7375031;19;20383;-45
2022/01/10 11:56:25;;;;;;;16.63;8.00;;;;;;;;;;7373280;19;20776;-46
2022/01/10 11:59:10;;;;;;;11.90;6.93;;;;;;;;;;7371729;19;20374;-45
2022/01/10 12:01:43;;;;;;;11.77;7.50;;;;;;;;;;7374678;19;21102;-46
2022/01/10 12:04:13;;;;;;;11.40;7.20;;;;;;;;;;7374598;19;20400;-46
2022/01/10 12:06:42;;;;;;;10.10;6.67;;;;;;;;;;7371535;19;20387;-45
2022/01/10 12:09:12;;;;;;;10.67;6.73;;;;;;;;;;7371715;19;20360;-46
2022/01/10 12:11:45;;;;;;;10.30;7.20;;;;;;;;;;7361872;19;20415;-46
2022/01/10 12:14:17;;;;;;;11.17;6.67;;;;;;;;;;7372585;19;20787;-46
2022/01/10 12:16:49;;;;;;;11.03;6.87;;;;;;;;;;7372762;19;20918;-46
2022/01/10 12:19:19;;;;;;;13.03;6.40;;;;;;;;;;7372050;19;20372;-46
2022/01/10 12:21:49;;;;;;;14.10;8.10;;;;;;;;;;7370150;19;20372;-46
2022/01/10 12:24:19;;;;;;;10.00;7.17;;;;;;;;;;7373454;19;20400;-46
2022/01/10 12:26:49;;;;;;;13.73;7.40;;;;;;;;;;7374678;19;20368;-46
2022/01/10 12:29:19;;;;;;;13.80;7.30;;;;;;;;;;7374003;19;20412;-46
2022/01/10 12:31:51;;;;;;;12.68;7.10;;;;;;;;;;7369353;19;20380;-45
2022/01/10 12:34:21;;;;;;;10.52;6.60;;;;;;;;;;7374375;19;20150;-45
2022/01/10 12:36:50;;;;;;;13.48;7.55;;;;;;;;;;7373559;19;20126;-45
2022/01/10 12:39:26;;;;;;;16.50;7.43;;;;;;;;;;7375627;19;20124;-45
2022/01/10 12:41:56;;;;;;;12.75;7.40;;;;;;;;;;7367977;19;20518;-45
2022/01/10 12:44:26;;;;;;;11.82;8.35;;;;;;;;;;7370370;19;20238;-45
2022/01/10 12:46:59;;;;;;;12.60;7.40;;;;;;;;;;7367553;19;20223;-47
2022/01/10 12:49:28;;;;;;;11.07;7.95;;;;;;;;;;7371820;19;20134;-45
2022/01/10 12:51:59;;;;;;;15.40;8.65;;;;;;;;;;7371544;19;20136;-45
2022/01/10 12:54:29;;;;;;;15.48;9.13;;;;;;;;;;7371984;19;20143;-45
2022/01/10 12:57:01;;;;;;;14.93;9.73;;;7.50;63.30;;;;;;7373138;19;20131;-45
2022/01/10 12:59:33;;;;;;;17.90;8.52;;;7.50;63.00;;;;;;7371826;19;20146;-44
2022/01/10 13:02:07;;;;;;;14.45;8.93;;;7.40;64.20;;;;;;7370780;19;20605;-46
2022/01/10 13:04:39;;;;;;;12.52;8.77;;;7.30;64.30;;;;;;7372183;19;20929;-45
2022/01/10 13:07:14;;;;;;;16.05;9.18;;;7.20;64.90;;;;;;7373615;19;20768;-45
2022/01/10 13:09:47;;;;;;;15.27;8.90;;;7.20;65.20;;;;;;7368617;19;20215;-45
2022/01/10 13:12:28;;;;;;;14.43;10.25;;;7.10;65.30;;;;;;7364586;19;20165;-45
2022/01/10 13:15:07;;;;;;;19.38;10.98;;;7.00;65.80;;;;;;7369020;19;20144;-44
2022/01/10 13:17:40;;;;;;;18.13;11.50;;;7.00;66.40;;;;;;7347408;19;20205;-45
2022/01/10 13:20:13;;;;;;;16.38;11.13;;;7.10;66.70;;;;;;7371332;19;20131;-45
2022/01/10 13:22:44;;;;;;;19.38;11.85;;;7.10;67.30;;;;;;7371909;19;20123;-45
2022/01/10 13:25:18;;;;;;;15.90;10.15;;;7.20;66.30;;;;;;7370620;19;20135;-45
2022/01/10 13:27:52;;;;;;;19.58;10.93;;;7.20;66.10;;;;;;7373505;19;20127;-45
2022/01/10 13:30:25;;;;;;;21.05;10.40;;;7.30;65.90;;;;;;7372770;19;20127;-45
2022/01/10 13:33:00;;;;;;;15.52;10.25;;;7.20;65.50;;;;;;7372521;19;20139;-44